Briefing drone pour Varennes-sur-allier

Rechercher une autre localisation

Conditions de vol :


Nous sommes le : Jeudi 06 octobre 2022
Il est 13:53 UTC (15:53 LT)

Lever de soleil : 05:24 UTC (07:24 LT)
Coucher de soleil : 17:44 UTC (19:44 LT)

Météo

L'essentiel des conditions de vol

VIGILANCE MÉTÉO FRANCE - Allier (03)
Pas de vigilances particulieres
METAR de LFLV
LFLV 061330Z AUTO 01005KT 320V040 9999 FEW017 OVC060 18/14 Q1030

Date d'émission: 06/10/2022
Heure d'émission: 13:30 UTC
Vent: 010° (variable du 320° au 040°) pour 5 KT (9 km/h)
Visibilité horizontale: > 10 km
Plafond :
- Peu de nuages à 1700ft (518m)
- Couvert à 6000ft (1829m)
Température: 18 °C
Point de rosée: 14 °C
Humidité: 77%
Pression (QNH): 1030 hPa
Prévision 24h pour Vichy (14 km)
Vent : 197° pour 1 KT (4 km/h)
Temperature Maxi: 17 °C
Temperature Min: 17 °C
Humidité : 67%
Condition : Couvert



Warning: count(): Parameter must be an array or an object that implements Countable in /homepages/6/d509196549/htdocs/droneoxygene/briefing.php on line 743
WEBCAM POUR VARENNES-SUR-ALLIER

Réglementation

Voler en sécurité

CARTES AERONAUTIQUE 1/500.000
CARTE AZBA (Reseau basse altitude)
CARTES VAC (LFLV)
SUP AIP




Chargement des AIP...
NOTAM (VARENNES-SUR-ALLIER + Terrain à proximité / FIR )




Chargement des NOTAMS...
CONTACT PREFECTURE 03


Avertissement : Les données mises à disposition sont indicatives. Oxygène Drone ne pourra être tenu responsable de dégâts causés aux biens et aux personnes.